sensor_id;sensor_type;location;lat;lon;timestamp;temperature;humidity
47961;DHT22;33721;48.852;9.936;2024-01-15T00:02:18;-3.90;99.90
47961;DHT22;33721;48.852;9.936;2024-01-15T00:04:43;-3.90;99.90
47961;DHT22;33721;48.852;9.936;2024-01-15T00:07:09;-3.90;99.90
47961;DHT22;33721;48.852;9.936;2024-01-15T00:09:35;-3.90;99.90
47961;DHT22;33721;48.852;9.936;2024-01-15T00:12:01;-3.90;99.90
47961;DHT22;33721;48.852;9.936;2024-01-15T00:14:28;-3.90;99.90
47961;DHT22;33721;48.852;9.936;2024-01-15T00:16:53;-3.90;99.90
47961;DHT22;33721;48.852;9.936;2024-01-15T00:19:23;-3.90;99.90
47961;DHT22;33721;48.852;9.936;2024-01-15T00:21:49;-3.80;99.90
47961;DHT22;33721;48.852;9.936;2024-01-15T00:24:15;-3.80;99.90
47961;DHT22;33721;48.852;9.936;2024-01-15T00:26:41;-3.80;99.90
47961;DHT22;33721;48.852;9.936;2024-01-15T00:29:07;-3.80;99.90
47961;DHT22;33721;48.852;9.936;2024-01-15T00:31:33;-3.90;99.90
47961;DHT22;33721;48.852;9.936;2024-01-15T00:33:59;-3.90;99.90
47961;DHT22;33721;48.852;9.936;2024-01-15T00:36:25;-3.90;99.90
47961;DHT22;33721;48.852;9.936;2024-01-15T00:38:50;-3.90;99.90
47961;DHT22;33721;48.852;9.936;2024-01-15T00:41:16;-4.00;99.90
47961;DHT22;33721;48.852;9.936;2024-01-15T00:43:45;-4.00;99.90
47961;DHT22;33721;48.852;9.936;2024-01-15T00:46:11;-4.00;99.90
47961;DHT22;33721;48.852;9.936;2024-01-15T00:48:37;-4.00;99.90
47961;DHT22;33721;48.852;9.936;2024-01-15T00:51:04;-4.00;99.90
47961;DHT22;33721;48.852;9.936;2024-01-15T00:53:29;-4.00;99.90
47961;DHT22;33721;48.852;9.936;2024-01-15T00:55:55;-4.10;99.90
47961;DHT22;33721;48.852;9.936;2024-01-15T00:58:21;-4.10;99.90
47961;DHT22;33721;48.852;9.936;2024-01-15T01:00:46;-4.10;99.90
47961;DHT22;33721;48.852;9.936;2024-01-15T01:03:12;-4.10;99.90
47961;DHT22;33721;48.852;9.936;2024-01-15T01:05:38;-4.10;99.90
47961;DHT22;33721;48.852;9.936;2024-01-15T01:08:04;-4.10;99.90
47961;DHT22;33721;48.852;9.936;2024-01-15T01:10:29;-4.10;99.90
47961;DHT22;33721;48.852;9.936;2024-01-15T01:12:55;-4.10;99.90
47961;DHT22;33721;48.852;9.936;2024-01-15T01:15:21;-4.10;99.90
47961;DHT22;33721;48.852;9.936;2024-01-15T01:17:46;-4.10;99.90
47961;DHT22;33721;48.852;9.936;2024-01-15T01:20:12;-4.10;99.90
47961;DHT22;33721;48.852;9.936;2024-01-15T01:22:40;-4.10;99.90
47961;DHT22;33721;48.852;9.936;2024-01-15T01:25:06;-4.00;99.90
47961;DHT22;33721;48.852;9.936;2024-01-15T01:27:32;-4.10;99.90
47961;DHT22;33721;48.852;9.936;2024-01-15T01:29:58;-4.00;99.90
47961;DHT22;33721;48.852;9.936;2024-01-15T01:32:23;-4.10;99.90
47961;DHT22;33721;48.852;9.936;2024-01-15T01:34:49;-4.20;99.90
47961;DHT22;33721;48.852;9.936;2024-01-15T01:37:15;-4.10;99.90
47961;DHT22;33721;48.852;9.936;2024-01-15T01:39:44;-4.10;99.90
47961;DHT22;33721;48.852;9.936;2024-01-15T01:42:10;-4.10;99.90
47961;DHT22;33721;48.852;9.936;2024-01-15T01:44:36;-4.10;99.90
47961;DHT22;33721;48.852;9.936;2024-01-15T01:47:02;-4.00;99.90
47961;DHT22;33721;48.852;9.936;2024-01-15T01:49:29;-4.00;99.90
47961;DHT22;33721;48.852;9.936;2024-01-15T01:51:59;-3.90;99.90
47961;DHT22;33721;48.852;9.936;2024-01-15T01:54:26;-3.90;99.90
47961;DHT22;33721;48.852;9.936;2024-01-15T01:56:52;-3.80;99.90
47961;DHT22;33721;48.852;9.936;2024-01-15T01:59:19;-3.70;99.90
47961;DHT22;33721;48.852;9.936;2024-01-15T02:01:45;-3.70;99.90
47961;DHT22;33721;48.852;9.936;2024-01-15T02:04:11;-3.60;99.90
47961;DHT22;33721;48.852;9.936;2024-01-15T02:06:37;-3.50;99.90
47961;DHT22;33721;48.852;9.936;2024-01-15T02:09:03;-3.40;99.90
47961;DHT22;33721;48.852;9.936;2024-01-15T02:11:31;-3.40;99.90
47961;DHT22;33721;48.852;9.936;2024-01-15T02:13:56;-3.30;99.90
47961;DHT22;33721;48.852;9.936;2024-01-15T02:16:22;-3.20;99.90
47961;DHT22;33721;48.852;9.936;2024-01-15T02:18:48;-3.00;99.90
47961;DHT22;33721;48.852;9.936;2024-01-15T02:21:13;-3.00;99.90
47961;DHT22;33721;48.852;9.936;2024-01-15T02:23:39;-2.90;99.90
47961;DHT22;33721;48.852;9.936;2024-01-15T02:26:05;-2.90;99.90
47961;DHT22;33721;48.852;9.936;2024-01-15T02:28:32;-2.70;99.90
47961;DHT22;33721;48.852;9.936;2024-01-15T02:30:58;-2.70;99.90
47961;DHT22;33721;48.852;9.936;2024-01-15T02:33:24;-2.60;99.90
47961;DHT22;33721;48.852;9.936;2024-01-15T02:35:49;-2.60;99.90
47961;DHT22;33721;48.852;9.936;2024-01-15T02:38:18;-2.50;99.90
47961;DHT22;33721;48.852;9.936;2024-01-15T02:40:44;-2.40;99.90
47961;DHT22;33721;48.852;9.936;2024-01-15T02:43:10;-2.40;99.90
47961;DHT22;33721;48.852;9.936;2024-01-15T02:45:36;-2.40;99.90
47961;DHT22;33721;48.852;9.936;2024-01-15T02:48:02;-2.40;99.90
47961;DHT22;33721;48.852;9.936;2024-01-15T02:50:27;-2.30;99.90
47961;DHT22;33721;48.852;9.936;2024-01-15T02:52:53;-2.30;99.90
47961;DHT22;33721;48.852;9.936;2024-01-15T02:55:19;-2.30;99.90
47961;DHT22;33721;48.852;9.936;2024-01-15T02:57:44;-2.30;99.90
47961;DHT22;33721;48.852;9.936;2024-01-15T03:00:10;-2.20;99.90
47961;DHT22;33721;48.852;9.936;2024-01-15T03:02:37;-2.20;99.90
47961;DHT22;33721;48.852;9.936;2024-01-15T03:05:07;-2.20;99.90
47961;DHT22;33721;48.852;9.936;2024-01-15T03:07:33;-2.20;99.90
47961;DHT22;33721;48.852;9.936;2024-01-15T03:09:59;-2.10;99.90
47961;DHT22;33721;48.852;9.936;2024-01-15T03:12:24;-2.10;99.90
47961;DHT22;33721;48.852;9.936;2024-01-15T03:14:50;-2.00;99.90
47961;DHT22;33721;48.852;9.936;2024-01-15T03:17:16;-1.90;99.90
47961;DHT22;33721;48.852;9.936;2024-01-15T03:19:41;-2.00;99.90
47961;DHT22;33721;48.852;9.936;2024-01-15T03:22:07;-1.90;99.90
47961;DHT22;33721;48.852;9.936;2024-01-15T03:24:34;-1.90;99.90
47961;DHT22;33721;48.852;9.936;2024-01-15T03:27:00;-1.90;99.90
47961;DHT22;33721;48.852;9.936;2024-01-15T03:29:26;-1.90;99.90
47961;DHT22;33721;48.852;9.936;2024-01-15T03:31:52;-1.90;99.90
47961;DHT22;33721;48.852;9.936;2024-01-15T03:34:18;-1.80;99.90
47961;DHT22;33721;48.852;9.936;2024-01-15T03:36:43;-1.80;99.90
47961;DHT22;33721;48.852;9.936;2024-01-15T03:39:09;-1.90;99.90
47961;DHT22;33721;48.852;9.936;2024-01-15T03:41:35;-1.80;99.90
47961;DHT22;33721;48.852;9.936;2024-01-15T03:44:00;-1.80;99.90
47961;DHT22;33721;48.852;9.936;2024-01-15T03:46:26;-1.70;99.90
47961;DHT22;33721;48.852;9.936;2024-01-15T03:48:52;-1.70;99.90
47961;DHT22;33721;48.852;9.936;2024-01-15T03:51:18;-1.70;99.90
47961;DHT22;33721;48.852;9.936;2024-01-15T03:53:44;-1.70;99.90
47961;DHT22;33721;48.852;9.936;2024-01-15T03:56:09;-1.70;99.90
47961;DHT22;33721;48.852;9.936;2024-01-15T03:58:36;-1.70;99.90
47961;DHT22;33721;48.852;9.936;2024-01-15T04:01:02;-1.70;99.90
47961;DHT22;33721;48.852;9.936;2024-01-15T04:03:27;-1.70;99.90
47961;DHT22;33721;48.852;9.936;2024-01-15T04:05:53;-1.70;99.90
47961;DHT22;33721;48.852;9.936;2024-01-15T04:08:19;-1.70;99.90
47961;DHT22;33721;48.852;9.936;2024-01-15T04:10:44;-1.70;99.90
47961;DHT22;33721;48.852;9.936;2024-01-15T04:13:10;-1.60;99.90
47961;DHT22;33721;48.852;9.936;2024-01-15T04:15:36;-1.70;99.90
47961;DHT22;33721;48.852;9.936;2024-01-15T04:18:02;-1.60;99.90
47961;DHT22;33721;48.852;9.936;2024-01-15T04:20:28;-1.60;99.90
47961;DHT22;33721;48.852;9.936;2024-01-15T04:22:54;-1.60;99.90
47961;DHT22;33721;48.852;9.936;2024-01-15T04:25:20;-1.60;99.90
47961;DHT22;33721;48.852;9.936;2024-01-15T04:27:45;-1.60;99.90
47961;DHT22;33721;48.852;9.936;2024-01-15T04:30:11;-1.60;99.90
47961;DHT22;33721;48.852;9.936;2024-01-15T04:32:37;-1.60;99.90
47961;DHT22;33721;48.852;9.936;2024-01-15T04:35:03;-1.60;99.90
47961;DHT22;33721;48.852;9.936;2024-01-15T04:37:28;-1.60;99.90
47961;DHT22;33721;48.852;9.936;2024-01-15T04:39:54;-1.60;99.90
47961;DHT22;33721;48.852;9.936;2024-01-15T04:42:21;-1.60;99.90
47961;DHT22;33721;48.852;9.936;2024-01-15T04:44:47;-1.60;99.90
47961;DHT22;33721;48.852;9.936;2024-01-15T04:47:12;-1.60;99.90
47961;DHT22;33721;48.852;9.936;2024-01-15T04:49:38;-1.60;99.90
47961;DHT22;33721;48.852;9.936;2024-01-15T04:52:04;-1.60;99.90
47961;DHT22;33721;48.852;9.936;2024-01-15T04:54:29;-1.50;99.90
47961;DHT22;33721;48.852;9.936;2024-01-15T04:56:55;-1.50;99.90
47961;DHT22;33721;48.852;9.936;2024-01-15T04:59:21;-1.50;99.90
47961;DHT22;33721;48.852;9.936;2024-01-15T05:01:46;-1.50;99.90
47961;DHT22;33721;48.852;9.936;2024-01-15T05:04:14;-1.50;99.90
47961;DHT22;33721;48.852;9.936;2024-01-15T05:06:40;-1.50;99.90
47961;DHT22;33721;48.852;9.936;2024-01-15T05:09:05;-1.50;99.90
47961;DHT22;33721;48.852;9.936;2024-01-15T05:11:31;-1.50;99.90
47961;DHT22;33721;48.852;9.936;2024-01-15T05:13:56;-1.50;99.90
47961;DHT22;33721;48.852;9.936;2024-01-15T05:16:22;-1.50;99.90
47961;DHT22;33721;48.852;9.936;2024-01-15T05:18:48;-1.50;99.90
47961;DHT22;33721;48.852;9.936;2024-01-15T05:21:13;-1.50;99.90
47961;DHT22;33721;48.852;9.936;2024-01-15T05:23:39;-1.50;99.90
47961;DHT22;33721;48.852;9.936;2024-01-15T05:26:04;-1.40;99.90
47961;DHT22;33721;48.852;9.936;2024-01-15T05:28:30;-1.50;99.90
47961;DHT22;33721;48.852;9.936;2024-01-15T05:30:56;-1.40;99.90
47961;DHT22;33721;48.852;9.936;2024-01-15T05:33:23;-1.50;99.90
47961;DHT22;33721;48.852;9.936;2024-01-15T05:35:48;-1.50;99.90
47961;DHT22;33721;48.852;9.936;2024-01-15T05:38:16;-1.50;99.90
47961;DHT22;33721;48.852;9.936;2024-01-15T05:40:41;-1.50;99.90
47961;DHT22;33721;48.852;9.936;2024-01-15T05:43:07;-1.50;99.90
47961;DHT22;33721;48.852;9.936;2024-01-15T05:45:34;-1.50;99.90
47961;DHT22;33721;48.852;9.936;2024-01-15T05:48:00;-1.50;99.90
47961;DHT22;33721;48.852;9.936;2024-01-15T05:50:26;-1.40;99.90
47961;DHT22;33721;48.852;9.936;2024-01-15T05:52:52;-1.40;99.90
47961;DHT22;33721;48.852;9.936;2024-01-15T05:55:18;-1.50;99.90
47961;DHT22;33721;48.852;9.936;2024-01-15T05:57:44;-1.50;99.90
47961;DHT22;33721;48.852;9.936;2024-01-15T06:00:10;-1.50;99.90
47961;DHT22;33721;48.852;9.936;2024-01-15T06:02:39;-1.50;99.90
47961;DHT22;33721;48.852;9.936;2024-01-15T06:05:05;-1.50;99.90
47961;DHT22;33721;48.852;9.936;2024-01-15T06:07:32;-1.50;99.90
47961;DHT22;33721;48.852;9.936;2024-01-15T06:09:58;-1.40;99.90
47961;DHT22;33721;48.852;9.936;2024-01-15T06:12:23;-1.50;99.90
47961;DHT22;33721;48.852;9.936;2024-01-15T06:14:49;-1.50;99.90
47961;DHT22;33721;48.852;9.936;2024-01-15T06:17:14;-1.40;99.90
47961;DHT22;33721;48.852;9.936;2024-01-15T06:19:40;-1.40;99.90
47961;DHT22;33721;48.852;9.936;2024-01-15T06:22:06;-1.40;99.90
47961;DHT22;33721;48.852;9.936;2024-01-15T06:24:31;-1.40;99.90
47961;DHT22;33721;48.852;9.936;2024-01-15T06:26:57;-1.40;99.90
47961;DHT22;33721;48.852;9.936;2024-01-15T06:29:26;-1.40;99.90
47961;DHT22;33721;48.852;9.936;2024-01-15T06:31:52;-1.40;99.90
47961;DHT22;33721;48.852;9.936;2024-01-15T06:34:17;-1.40;99.90
47961;DHT22;33721;48.852;9.936;2024-01-15T06:36:43;-1.40;99.90
47961;DHT22;33721;48.852;9.936;2024-01-15T06:39:09;-1.40;99.90
47961;DHT22;33721;48.852;9.936;2024-01-15T06:41:35;-1.40;99.90
47961;DHT22;33721;48.852;9.936;2024-01-15T06:44:07;-1.40;99.90
47961;DHT22;33721;48.852;9.936;2024-01-15T06:46:32;-1.40;99.90
47961;DHT22;33721;48.852;9.936;2024-01-15T06:48:58;-1.40;99.90
47961;DHT22;33721;48.852;9.936;2024-01-15T06:51:23;-1.40;99.90
47961;DHT22;33721;48.852;9.936;2024-01-15T06:53:49;-1.40;99.90
47961;DHT22;33721;48.852;9.936;2024-01-15T06:56:15;-1.40;99.90
47961;DHT22;33721;48.852;9.936;2024-01-15T06:58:40;-1.40;99.90
47961;DHT22;33721;48.852;9.936;2024-01-15T07:01:06;-1.40;99.90
47961;DHT22;33721;48.852;9.936;2024-01-15T07:03:33;-1.40;99.90
47961;DHT22;33721;48.852;9.936;2024-01-15T07:05:58;-1.40;99.90
47961;DHT22;33721;48.852;9.936;2024-01-15T07:08:24;-1.40;99.90
47961;DHT22;33721;48.852;9.936;2024-01-15T07:10:50;-1.40;99.90
47961;DHT22;33721;48.852;9.936;2024-01-15T07:13:15;-1.40;99.90
47961;DHT22;33721;48.852;9.936;2024-01-15T07:15:41;-1.40;99.90
47961;DHT22;33721;48.852;9.936;2024-01-15T07:18:06;-1.40;99.90
47961;DHT22;33721;48.852;9.936;2024-01-15T07:20:32;-1.40;99.90
47961;DHT22;33721;48.852;9.936;2024-01-15T07:22:58;-1.30;99.90
47961;DHT22;33721;48.852;9.936;2024-01-15T07:25:23;-1.40;99.90
47961;DHT22;33721;48.852;9.936;2024-01-15T07:27:51;-1.30;99.90
47961;DHT22;33721;48.852;9.936;2024-01-15T07:30:19;-1.30;99.90
47961;DHT22;33721;48.852;9.936;2024-01-15T07:32:47;-1.30;99.90
47961;DHT22;33721;48.852;9.936;2024-01-15T07:35:14;-1.30;99.90
47961;DHT22;33721;48.852;9.936;2024-01-15T07:37:40;-1.20;99.90
47961;DHT22;33721;48.852;9.936;2024-01-15T07:40:06;-1.20;99.90
47961;DHT22;33721;48.852;9.936;2024-01-15T07:42:36;-1.20;99.90
47961;DHT22;33721;48.852;9.936;2024-01-15T07:45:02;-1.10;99.90
47961;DHT22;33721;48.852;9.936;2024-01-15T07:47:28;-1.10;99.90
47961;DHT22;33721;48.852;9.936;2024-01-15T07:49:53;-1.00;99.90
47961;DHT22;33721;48.852;9.936;2024-01-15T07:52:19;-1.00;99.90
47961;DHT22;33721;48.852;9.936;2024-01-15T07:54:45;-1.00;99.90
47961;DHT22;33721;48.852;9.936;2024-01-15T07:57:11;-1.00;99.90
47961;DHT22;33721;48.852;9.936;2024-01-15T07:59:36;-1.00;99.90
47961;DHT22;33721;48.852;9.936;2024-01-15T08:02:02;-0.90;99.90
47961;DHT22;33721;48.852;9.936;2024-01-15T08:04:28;-1.00;99.90
47961;DHT22;33721;48.852;9.936;2024-01-15T08:06:54;-0.90;99.90
47961;DHT22;33721;48.852;9.936;2024-01-15T08:09:20;-0.90;99.90
47961;DHT22;33721;48.852;9.936;2024-01-15T08:11:45;-0.90;99.90
47961;DHT22;33721;48.852;9.936;2024-01-15T08:14:11;-0.90;99.90
47961;DHT22;33721;48.852;9.936;2024-01-15T08:16:39;-0.90;99.90
47961;DHT22;33721;48.852;9.936;2024-01-15T08:19:04;-0.80;99.90
47961;DHT22;33721;48.852;9.936;2024-01-15T08:21:31;-0.80;99.90
47961;DHT22;33721;48.852;9.936;2024-01-15T08:24:00;-0.80;99.90
47961;DHT22;33721;48.852;9.936;2024-01-15T08:26:26;-0.80;99.90
47961;DHT22;33721;48.852;9.936;2024-01-15T08:28:52;-0.80;99.90
47961;DHT22;33721;48.852;9.936;2024-01-15T08:31:17;-0.80;99.90
47961;DHT22;33721;48.852;9.936;2024-01-15T08:33:43;-0.80;99.90
47961;DHT22;33721;48.852;9.936;2024-01-15T08:36:12;-0.80;99.90
47961;DHT22;33721;48.852;9.936;2024-01-15T08:38:38;-0.80;99.90
47961;DHT22;33721;48.852;9.936;2024-01-15T08:41:04;-0.80;99.90
47961;DHT22;33721;48.852;9.936;2024-01-15T08:43:29;-0.70;99.90
47961;DHT22;33721;48.852;9.936;2024-01-15T08:45:57;-0.70;99.90
47961;DHT22;33721;48.852;9.936;2024-01-15T08:48:23;-0.70;99.90
47961;DHT22;33721;48.852;9.936;2024-01-15T08:50:48;-0.60;99.90
47961;DHT22;33721;48.852;9.936;2024-01-15T08:53:14;-0.60;99.90
47961;DHT22;33721;48.852;9.936;2024-01-15T08:55:40;-0.60;99.90
47961;DHT22;33721;48.852;9.936;2024-01-15T08:58:08;-0.60;99.90
47961;DHT22;33721;48.852;9.936;2024-01-15T09:00:33;-0.60;99.90
47961;DHT22;33721;48.852;9.936;2024-01-15T09:02:59;-0.50;99.90
47961;DHT22;33721;48.852;9.936;2024-01-15T09:05:25;-0.50;99.90
47961;DHT22;33721;48.852;9.936;2024-01-15T09:07:51;-0.50;99.90
47961;DHT22;33721;48.852;9.936;2024-01-15T09:10:18;-0.50;99.90
47961;DHT22;33721;48.852;9.936;2024-01-15T09:12:43;-0.50;99.90
47961;DHT22;33721;48.852;9.936;2024-01-15T09:15:09;-0.50;99.90
47961;DHT22;33721;48.852;9.936;2024-01-15T09:17:35;-0.50;99.90
47961;DHT22;33721;48.852;9.936;2024-01-15T09:20:00;-0.40;99.90
47961;DHT22;33721;48.852;9.936;2024-01-15T09:22:26;-0.40;99.90
47961;DHT22;33721;48.852;9.936;2024-01-15T09:24:52;-0.40;99.90
47961;DHT22;33721;48.852;9.936;2024-01-15T09:27:18;-0.30;99.90
47961;DHT22;33721;48.852;9.936;2024-01-15T09:29:43;-0.30;99.90
47961;DHT22;33721;48.852;9.936;2024-01-15T09:32:11;-0.30;99.90
47961;DHT22;33721;48.852;9.936;2024-01-15T09:34:38;-0.30;99.90
47961;DHT22;33721;48.852;9.936;2024-01-15T09:37:04;-0.20;99.90
47961;DHT22;33721;48.852;9.936;2024-01-15T09:39:29;-0.20;99.90
47961;DHT22;33721;48.852;9.936;2024-01-15T09:41:56;-0.20;99.90
47961;DHT22;33721;48.852;9.936;2024-01-15T09:44:21;-0.20;99.90
47961;DHT22;33721;48.852;9.936;2024-01-15T09:46:47;-0.20;99.90
47961;DHT22;33721;48.852;9.936;2024-01-15T09:49:16;-0.10;99.90
47961;DHT22;33721;48.852;9.936;2024-01-15T09:51:42;-0.10;99.90
47961;DHT22;33721;48.852;9.936;2024-01-15T09:54:08;-0.10;99.90
47961;DHT22;33721;48.852;9.936;2024-01-15T09:56:34;-0.10;99.90
47961;DHT22;33721;48.852;9.936;2024-01-15T09:59:01;-0.10;99.90
47961;DHT22;33721;48.852;9.936;2024-01-15T10:01:27;0.00;99.90
47961;DHT22;33721;48.852;9.936;2024-01-15T10:03:54;0.00;99.90
47961;DHT22;33721;48.852;9.936;2024-01-15T10:06:21;0.00;99.90
47961;DHT22;33721;48.852;9.936;2024-01-15T10:08:51;0.00;99.90
47961;DHT22;33721;48.852;9.936;2024-01-15T10:11:17;0.00;99.90
47961;DHT22;33721;48.852;9.936;2024-01-15T10:13:46;0.10;99.90
47961;DHT22;33721;48.852;9.936;2024-01-15T10:16:12;0.10;99.90
47961;DHT22;33721;48.852;9.936;2024-01-15T10:18:38;0.20;99.90
47961;DHT22;33721;48.852;9.936;2024-01-15T10:21:06;0.20;99.90
47961;DHT22;33721;48.852;9.936;2024-01-15T10:23:32;0.20;99.90
47961;DHT22;33721;48.852;9.936;2024-01-15T10:25:58;0.20;99.90
47961;DHT22;33721;48.852;9.936;2024-01-15T10:28:26;0.20;99.90
47961;DHT22;33721;48.852;9.936;2024-01-15T10:30:55;0.30;99.90
47961;DHT22;33721;48.852;9.936;2024-01-15T10:33:24;0.30;99.90
47961;DHT22;33721;48.852;9.936;2024-01-15T10:35:53;0.30;99.90
47961;DHT22;33721;48.852;9.936;2024-01-15T10:38:20;0.30;99.90
47961;DHT22;33721;48.852;9.936;2024-01-15T10:40:48;0.30;99.90
47961;DHT22;33721;48.852;9.936;2024-01-15T10:43:16;0.40;99.90
47961;DHT22;33721;48.852;9.936;2024-01-15T10:45:47;0.40;99.90
47961;DHT22;33721;48.852;9.936;2024-01-15T10:48:13;0.40;99.90
47961;DHT22;33721;48.852;9.936;2024-01-15T10:50:40;0.40;99.90
47961;DHT22;33721;48.852;9.936;2024-01-15T10:53:06;0.40;99.90
47961;DHT22;33721;48.852;9.936;2024-01-15T10:55:33;0.40;99.90
47961;DHT22;33721;48.852;9.936;2024-01-15T10:58:01;0.40;99.90
47961;DHT22;33721;48.852;9.936;2024-01-15T11:00:29;0.50;99.90
47961;DHT22;33721;48.852;9.936;2024-01-15T11:02:55;0.50;99.90
47961;DHT22;33721;48.852;9.936;2024-01-15T11:05:21;0.50;99.90
47961;DHT22;33721;48.852;9.936;2024-01-15T11:07:50;0.60;99.90
47961;DHT22;33721;48.852;9.936;2024-01-15T11:10:52;0.60;99.90
47961;DHT22;33721;48.852;9.936;2024-01-15T11:18:37;0.50;99.90
47961;DHT22;33721;48.852;9.936;2024-01-15T11:23:45;0.70;99.90
47961;DHT22;33721;48.852;9.936;2024-01-15T11:32:09;0.60;99.90
47961;DHT22;33721;48.852;9.936;2024-01-15T11:34:59;0.60;99.90
47961;DHT22;33721;48.852;9.936;2024-01-15T11:38:13;0.60;99.90
47961;DHT22;33721;48.852;9.936;2024-01-15T11:40:13;0.60;99.90
47961;DHT22;33721;48.852;9.936;2024-01-15T11:42:43;0.50;99.90
47961;DHT22;33721;48.852;9.936;2024-01-15T11:45:09;0.40;99.90
47961;DHT22;33721;48.852;9.936;2024-01-15T11:47:58;0.30;99.90
47961;DHT22;33721;48.852;9.936;2024-01-15T11:50:30;-0.10;99.90
47961;DHT22;33721;48.852;9.936;2024-01-15T11:53:02;-0.20;99.90
47961;DHT22;33721;48.852;9.936;2024-01-15T11:55:35;-0.30;99.90
47961;DHT22;33721;48.852;9.936;2024-01-15T11:58:02;-0.30;99.90
47961;DHT22;33721;48.852;9.936;2024-01-15T12:00:31;-0.40;99.90
47961;DHT22;33721;48.852;9.936;2024-01-15T12:02:58;-0.40;99.90
47961;DHT22;33721;48.852;9.936;2024-01-15T12:05:24;-0.50;99.90
47961;DHT22;33721;48.852;9.936;2024-01-15T12:07:50;-0.50;99.90
47961;DHT22;33721;48.852;9.936;2024-01-15T12:10:18;-0.60;99.90
47961;DHT22;33721;48.852;9.936;2024-01-15T12:12:55;-0.70;99.90
47961;DHT22;33721;48.852;9.936;2024-01-15T12:15:22;-0.70;99.90
47961;DHT22;33721;48.852;9.936;2024-01-15T12:17:49;-0.80;99.90
47961;DHT22;33721;48.852;9.936;2024-01-15T12:20:15;-0.70;99.90
47961;DHT22;33721;48.852;9.936;2024-01-15T12:22:41;-0.70;99.90
47961;DHT22;33721;48.852;9.936;2024-01-15T12:25:07;-0.70;99.90
47961;DHT22;33721;48.852;9.936;2024-01-15T12:27:33;-0.70;99.90
47961;DHT22;33721;48.852;9.936;2024-01-15T12:29:58;-0.60;99.90
47961;DHT22;33721;48.852;9.936;2024-01-15T12:32:24;-0.60;99.90
47961;DHT22;33721;48.852;9.936;2024-01-15T12:34:51;-0.60;99.90
47961;DHT22;33721;48.852;9.936;2024-01-15T12:37:20;-0.60;99.90
47961;DHT22;33721;48.852;9.936;2024-01-15T12:39:46;-0.60;99.90
47961;DHT22;33721;48.852;9.936;2024-01-15T12:42:13;-0.60;99.90
47961;DHT22;33721;48.852;9.936;2024-01-15T12:44:39;-0.60;99.90
47961;DHT22;33721;48.852;9.936;2024-01-15T12:47:05;-0.60;99.90
47961;DHT22;33721;48.852;9.936;2024-01-15T12:49:31;-0.60;99.90
47961;DHT22;33721;48.852;9.936;2024-01-15T12:51:57;-0.60;99.90
47961;DHT22;33721;48.852;9.936;2024-01-15T12:54:23;-0.60;99.90
47961;DHT22;33721;48.852;9.936;2024-01-15T12:56:50;-0.60;99.90
47961;DHT22;33721;48.852;9.936;2024-01-15T12:59:16;-0.60;99.90
47961;DHT22;33721;48.852;9.936;2024-01-15T13:01:42;-0.60;99.90
47961;DHT22;33721;48.852;9.936;2024-01-15T13:04:08;-0.60;99.90
47961;DHT22;33721;48.852;9.936;2024-01-15T13:06:37;-0.60;99.90
47961;DHT22;33721;48.852;9.936;2024-01-15T13:09:05;-0.50;99.90
47961;DHT22;33721;48.852;9.936;2024-01-15T13:11:32;-0.50;99.90
47961;DHT22;33721;48.852;9.936;2024-01-15T13:13:58;-0.50;99.90
47961;DHT22;33721;48.852;9.936;2024-01-15T13:16:23;-0.40;99.90
47961;DHT22;33721;48.852;9.936;2024-01-15T13:18:52;-0.40;99.90
47961;DHT22;33721;48.852;9.936;2024-01-15T13:21:18;-0.40;99.90
47961;DHT22;33721;48.852;9.936;2024-01-15T13:23:43;-0.40;99.90
47961;DHT22;33721;48.852;9.936;2024-01-15T13:26:09;-0.40;99.90
47961;DHT22;33721;48.852;9.936;2024-01-15T13:28:34;-0.40;99.90
47961;DHT22;33721;48.852;9.936;2024-01-15T13:31:01;-0.40;99.90
47961;DHT22;33721;48.852;9.936;2024-01-15T13:33:27;-0.40;99.90
47961;DHT22;33721;48.852;9.936;2024-01-15T13:35:53;-0.40;99.90
47961;DHT22;33721;48.852;9.936;2024-01-15T13:38:19;-0.40;99.90
47961;DHT22;33721;48.852;9.936;2024-01-15T13:40:44;-0.40;99.90
47961;DHT22;33721;48.852;9.936;2024-01-15T13:43:11;-0.40;99.90
47961;DHT22;33721;48.852;9.936;2024-01-15T13:45:37;-0.40;99.90
47961;DHT22;33721;48.852;9.936;2024-01-15T13:48:03;-0.40;99.90
47961;DHT22;33721;48.852;9.936;2024-01-15T13:50:31;-0.30;99.90
47961;DHT22;33721;48.852;9.936;2024-01-15T13:52:57;-0.30;99.90
47961;DHT22;33721;48.852;9.936;2024-01-15T13:55:22;-0.30;99.90
47961;DHT22;33721;48.852;9.936;2024-01-15T13:57:48;-0.30;99.90
47961;DHT22;33721;48.852;9.936;2024-01-15T14:00:14;-0.20;99.90
47961;DHT22;33721;48.852;9.936;2024-01-15T14:02:44;-0.30;99.90
47961;DHT22;33721;48.852;9.936;2024-01-15T14:05:10;-0.20;99.90
47961;DHT22;33721;48.852;9.936;2024-01-15T14:07:38;-0.20;99.90
47961;DHT22;33721;48.852;9.936;2024-01-15T14:10:05;-0.30;99.90
47961;DHT22;33721;48.852;9.936;2024-01-15T14:12:31;-0.30;99.90
47961;DHT22;33721;48.852;9.936;2024-01-15T14:14:57;-0.40;99.90
47961;DHT22;33721;48.852;9.936;2024-01-15T14:17:22;-0.40;99.90
47961;DHT22;33721;48.852;9.936;2024-01-15T14:19:48;-0.30;99.90
47961;DHT22;33721;48.852;9.936;2024-01-15T14:22:14;-0.30;99.90
47961;DHT22;33721;48.852;9.936;2024-01-15T14:24:39;-0.30;99.90
47961;DHT22;33721;48.852;9.936;2024-01-15T14:27:05;-0.30;99.90
47961;DHT22;33721;48.852;9.936;2024-01-15T14:29:32;-0.30;99.90
47961;DHT22;33721;48.852;9.936;2024-01-15T14:31:58;-0.30;99.90
47961;DHT22;33721;48.852;9.936;2024-01-15T14:34:25;-0.20;99.90
47961;DHT22;33721;48.852;9.936;2024-01-15T14:36:51;-0.20;99.90
47961;DHT22;33721;48.852;9.936;2024-01-15T14:39:19;-0.20;99.90
47961;DHT22;33721;48.852;9.936;2024-01-15T14:41:45;-0.20;99.90
47961;DHT22;33721;48.852;9.936;2024-01-15T14:44:12;-0.20;99.90
47961;DHT22;33721;48.852;9.936;2024-01-15T14:46:38;-0.30;99.90
47961;DHT22;33721;48.852;9.936;2024-01-15T14:49:03;-0.20;99.90
47961;DHT22;33721;48.852;9.936;2024-01-15T14:51:29;-0.20;99.90
47961;DHT22;33721;48.852;9.936;2024-01-15T14:53:55;-0.20;99.90
47961;DHT22;33721;48.852;9.936;2024-01-15T14:56:21;-0.20;99.90
47961;DHT22;33721;48.852;9.936;2024-01-15T14:58:46;-0.20;99.90
47961;DHT22;33721;48.852;9.936;2024-01-15T15:01:12;-0.20;99.90
47961;DHT22;33721;48.852;9.936;2024-01-15T15:03:39;-0.20;99.90
47961;DHT22;33721;48.852;9.936;2024-01-15T15:06:05;-0.20;99.90
47961;DHT22;33721;48.852;9.936;2024-01-15T15:08:33;-0.30;99.90
47961;DHT22;33721;48.852;9.936;2024-01-15T15:10:59;-0.30;99.90
47961;DHT22;33721;48.852;9.936;2024-01-15T15:13:25;-0.30;99.90
47961;DHT22;33721;48.852;9.936;2024-01-15T15:15:51;-0.40;99.90
47961;DHT22;33721;48.852;9.936;2024-01-15T15:18:19;-0.40;99.90
47961;DHT22;33721;48.852;9.936;2024-01-15T15:20:45;-0.40;99.90
47961;DHT22;33721;48.852;9.936;2024-01-15T15:23:11;-0.40;99.90
47961;DHT22;33721;48.852;9.936;2024-01-15T15:25:37;-0.40;99.90
47961;DHT22;33721;48.852;9.936;2024-01-15T15:28:02;-0.50;99.90
47961;DHT22;33721;48.852;9.936;2024-01-15T15:30:30;-0.50;99.90
47961;DHT22;33721;48.852;9.936;2024-01-15T15:32:56;-0.50;99.90
47961;DHT22;33721;48.852;9.936;2024-01-15T15:35:22;-0.50;99.90
47961;DHT22;33721;48.852;9.936;2024-01-15T15:37:48;-0.50;99.90
47961;DHT22;33721;48.852;9.936;2024-01-15T15:40:14;-0.50;99.90
47961;DHT22;33721;48.852;9.936;2024-01-15T15:42:39;-0.50;99.90